FMHAV BGGH-BGGH
Flight info
| Callsign | FMHAV |
|---|---|
| Flight time | 0h 5m |
| Altitude | 1000 |
| Route | LGL UT190 GODIX UN872 DIDAK/N0443F370 DCT AKEMO DCT RIVAK/M077F360 DCT SIVIR DCT PASAS DCT 42N020W DCT ANAVA/M067F280 H122 DOLER |
| Aircraft | C172/L-SDE3FGHIRWY/LB1 |
Departure
| Time | 2026-04-30 18:23 |
|---|---|
| Airport | Nuuk International Airport (BGGH) |
Arrival
| Time | 2026-04-30 18:28 |
|---|---|
| Airport | Nuuk International Airport (BGGH) |
| Time | Latitude | Longitude | Altitude | Speed | Heading |
|---|---|---|---|---|---|
| 2026-04-30 18:22 | 64.18253 | -51.68536 | 196 ft | 0 kts | 360° |
| 2026-04-30 18:22 | 64.18703 | -51.68214 | 338 ft | 60 kts | 14° |
| 2026-04-30 18:22 | 64.19098 | -51.68006 | 584 ft | 58 kts | 11° |
| 2026-04-30 18:23 | 64.19505 | -51.67859 | 803 ft | 60 kts | 4° |
| 2026-04-30 18:23 | 64.19921 | -51.67814 | 1039 ft | 62 kts | 359° |
| 2026-04-30 18:23 | 64.20344 | -51.68125 | 1229 ft | 70 kts | 335° |
| 2026-04-30 18:23 | 64.20792 | -51.68564 | 1474 ft | 64 kts | 345° |
| 2026-04-30 18:24 | 64.21936 | -51.68293 | 1534 ft | 98 kts | 22° |
| 2026-04-30 18:24 | 64.22497 | -51.67368 | 1555 ft | 106 kts | 41° |
| 2026-04-30 18:24 | 64.23026 | -51.66098 | 1480 ft | 114 kts | 48° |
| 2026-04-30 18:25 | 64.23299 | -51.64865 | 1954 ft | 79 kts | 104° |
| 2026-04-30 18:25 | 64.22098 | -51.63953 | 2068 ft | 103 kts | 172° |
| 2026-04-30 18:25 | 64.21411 | -51.63848 | 2252 ft | 100 kts | 175° |
| 2026-04-30 18:26 | 64.19974 | -51.63549 | 2353 ft | 108 kts | 155° |
| 2026-04-30 18:26 | 64.19321 | -51.62767 | 2446 ft | 105 kts | 161° |
| 2026-04-30 18:26 | 64.18580 | -51.63070 | 2345 ft | 122 kts | 205° |
| 2026-04-30 18:27 | 64.17340 | -51.65601 | 1169 ft | 124 kts | 225° |
| 2026-04-30 18:27 | 64.16851 | -51.66671 | 1161 ft | 81 kts | 271° |
| 2026-04-30 18:28 | 64.17516 | -51.68576 | 613 ft | 88 kts | 327° |
| 2026-04-30 18:28 | 64.18067 | -51.68686 | 258 ft | 76 kts | 15° |
| 2026-04-30 18:28 | 64.18651 | -51.68178 | 182 ft | 17 kts | 99° |
| 2026-04-30 18:29 | 64.18642 | -51.67892 | 196 ft | 10 kts | 34° |